KNQA/NQA METAR and TAF weather

Enter ICAO airport designator
Station Type Date Time Source
KNQA METAR 2021/07/28 20:50 UTC NOAA

KNQA 282050Z 35006KT 10SM FEW050 34/26 A3003


Station Type Date Time Source
KNQA Decoded METAR 2021/07/28 20:50 UTC NOAA

Millington, Millington Municipal Airport, TN, United States (KNQA) 35-21-24N 089-52-13W
Jul 28, 2021 - 04:50 PM EDT / 2021.07.28 2050 UTC
Wind: from the N (350 degrees) at 7 MPH (6 KT):0
Visibility: 10 mile(s):0
Sky conditions: mostly clear
Temperature: 93 F (34 C)
Heat index: 109.6 F (43.1 C):1
Dew Point: 78 F (26 C)
Relative Humidity: 63%
Pressure (altimeter): 30.03 in. Hg (1016 hPa)
ob: KNQA 282050Z 35006KT 10SM FEW050 34/26 A3003
cycle: 21

Station Type Date Time Source
KNQA TAF UTC NOAA

Error!

Example: see airport list